CheckWX is a tool to help pilots better visualize weather data.  It is not intended as a substitute for an official pre-flight weather briefing.

05:00:33 UTC

KGNV METAR
Gainesville Regional Airport
Gainesville, Florida, USA
Current

1 hour ago

KGNV 150353Z AUTO 00000KT 10SM CLR 25/24 A3009 RMK AO2 SLP183 T02500239
Observed
Jul-15 @ 03:53 UTC
Visibility
10 SM
Flight Rules
VFR
Cloud Levels
  • Clear skies
Temperature
25°C / 77°F
Dewpoint
24°C / 75°F
Humidity
94%
Altimeter
30.09" Hg
Pressure
1018.92 hPa
Previous

2 hours ago

KGNV 150317Z AUTO 10006KT 10SM SCT025 26/24 A3010 RMK AO2 T02560244
Observed
Jul-15 @ 03:17 UTC
Wind
  • 100° at 6 KTS
Visibility
10 SM
Flight Rules
VFR
Cloud Levels
  • Scattered at 2,500' AGL
Temperature
26°C / 79°F
Dewpoint
24°C / 75°F
Humidity
89%
Altimeter
30.1" Hg
Pressure
1019.32 hPa
Previous

2 hours ago

KGNV 150307Z AUTO 00000KT 10SM BKN025 26/24 A3009 RMK AO2 T02560244
Observed
Jul-15 @ 03:07 UTC
Visibility
10 SM
Flight Rules
MVFR
Cloud Levels
  • Broken at 2,500' AGL
Temperature
26°C / 79°F
Dewpoint
24°C / 75°F
Humidity
89%
Altimeter
30.09" Hg
Pressure
1018.92 hPa